sensor_id;sensor_type;location;lat;lon;timestamp;pressure;altitude;pressure_sealevel;temperature;humidity
57948;BME280;43754;56.992;24.292;2023-05-20T00:02:15;103181.13;;;6.28;100.00
57948;BME280;43754;56.992;24.292;2023-05-20T00:04:49;103187.59;;;6.24;100.00
57948;BME280;43754;56.992;24.292;2023-05-20T00:07:21;103185.28;;;6.18;100.00
57948;BME280;43754;56.992;24.292;2023-05-20T00:09:54;103191.41;;;6.20;100.00
57948;BME280;43754;56.992;24.292;2023-05-20T00:12:26;103185.41;;;6.17;100.00
57948;BME280;43754;56.992;24.292;2023-05-20T00:14:58;103186.41;;;6.14;100.00
57948;BME280;43754;56.992;24.292;2023-05-20T00:17:30;103187.56;;;6.10;100.00
57948;BME280;43754;56.992;24.292;2023-05-20T00:20:04;103193.06;;;6.07;100.00
57948;BME280;43754;56.992;24.292;2023-05-20T00:22:36;103199.44;;;6.05;100.00
57948;BME280;43754;56.992;24.292;2023-05-20T00:25:08;103197.06;;;6.00;100.00
57948;BME280;43754;56.992;24.292;2023-05-20T00:27:41;103193.78;;;5.95;100.00
57948;BME280;43754;56.992;24.292;2023-05-20T00:30:13;103205.56;;;5.91;100.00
57948;BME280;43754;56.992;24.292;2023-05-20T00:32:46;103200.75;;;5.82;100.00
57948;BME280;43754;56.992;24.292;2023-05-20T00:35:19;103200.75;;;5.82;100.00
57948;BME280;43754;56.992;24.292;2023-05-20T00:37:51;103209.59;;;5.82;100.00
57948;BME280;43754;56.992;24.292;2023-05-20T00:40:24;103200.81;;;5.80;100.00
57948;BME280;43754;56.992;24.292;2023-05-20T00:42:56;103209.66;;;5.81;100.00
57948;BME280;43754;56.992;24.292;2023-05-20T00:45:30;103204.59;;;5.76;100.00
57948;BME280;43754;56.992;24.292;2023-05-20T00:48:02;103203.19;;;5.71;100.00
57948;BME280;43754;56.992;24.292;2023-05-20T00:50:38;103209.63;;;5.67;100.00
57948;BME280;43754;56.992;24.292;2023-05-20T00:53:10;103210.75;;;5.63;100.00
57948;BME280;43754;56.992;24.292;2023-05-20T00:55:42;103213.56;;;5.60;100.00
57948;BME280;43754;56.992;24.292;2023-05-20T00:58:14;103212.19;;;5.52;100.00
57948;BME280;43754;56.992;24.292;2023-05-20T01:00:47;103217.63;;;5.51;100.00
57948;BME280;43754;56.992;24.292;2023-05-20T01:03:19;103216.75;;;5.50;100.00
57948;BME280;43754;56.992;24.292;2023-05-20T01:05:53;103218.81;;;5.45;100.00
57948;BME280;43754;56.992;24.292;2023-05-20T01:08:26;103215.22;;;5.46;100.00
57948;BME280;43754;56.992;24.292;2023-05-20T01:11:02;103211.97;;;5.41;100.00
57948;BME280;43754;56.992;24.292;2023-05-20T01:13:42;103220.13;;;5.38;100.00
57948;BME280;43754;56.992;24.292;2023-05-20T01:16:17;103215.13;;;5.32;100.00
57948;BME280;43754;56.992;24.292;2023-05-20T01:18:54;103220.00;;;5.24;100.00
57948;BME280;43754;56.992;24.292;2023-05-20T01:21:29;103221.13;;;5.20;100.00
57948;BME280;43754;56.992;24.292;2023-05-20T01:24:03;103219.41;;;5.19;100.00
57948;BME280;43754;56.992;24.292;2023-05-20T01:26:37;103224.81;;;5.18;100.00
57948;BME280;43754;56.992;24.292;2023-05-20T01:29:09;103223.88;;;5.19;100.00
57948;BME280;43754;56.992;24.292;2023-05-20T01:31:46;103224.91;;;5.16;100.00
57948;BME280;43754;56.992;24.292;2023-05-20T01:34:19;103220.78;;;5.10;100.00
57948;BME280;43754;56.992;24.292;2023-05-20T01:36:53;103229.78;;;5.08;100.00
57948;BME280;43754;56.992;24.292;2023-05-20T01:39:28;103228.13;;;5.05;100.00
57948;BME280;43754;56.992;24.292;2023-05-20T01:42:02;103224.03;;;5.00;100.00
57948;BME280;43754;56.992;24.292;2023-05-20T01:44:36;103221.69;;;4.94;100.00
57948;BME280;43754;56.992;24.292;2023-05-20T01:47:08;103227.34;;;4.88;100.00
57948;BME280;43754;56.992;24.292;2023-05-20T01:49:40;103217.72;;;4.85;100.00
57948;BME280;43754;56.992;24.292;2023-05-20T01:52:12;103218.75;;;4.83;100.00
57948;BME280;43754;56.992;24.292;2023-05-20T01:54:46;103212.50;;;4.84;100.00
57948;BME280;43754;56.992;24.292;2023-05-20T01:57:27;103215.25;;;4.82;100.00
57948;BME280;43754;56.992;24.292;2023-05-20T01:59:59;103210.84;;;4.81;100.00
57948;BME280;43754;56.992;24.292;2023-05-20T02:02:31;103216.97;;;4.83;100.00
57948;BME280;43754;56.992;24.292;2023-05-20T02:05:05;103221.50;;;4.81;100.00
57948;BME280;43754;56.992;24.292;2023-05-20T02:07:38;103215.56;;;4.76;100.00
57948;BME280;43754;56.992;24.292;2023-05-20T02:10:12;103214.63;;;4.77;100.00
57948;BME280;43754;56.992;24.292;2023-05-20T02:12:44;103225.34;;;4.76;100.00
57948;BME280;43754;56.992;24.292;2023-05-20T02:15:18;103217.97;;;4.81;100.00
57948;BME280;43754;56.992;24.292;2023-05-20T02:17:50;103231.13;;;4.84;100.00
57948;BME280;43754;56.992;24.292;2023-05-20T02:20:23;103235.31;;;4.88;100.00
57948;BME280;43754;56.992;24.292;2023-05-20T02:22:55;103228.03;;;4.91;100.00
57948;BME280;43754;56.992;24.292;2023-05-20T02:25:28;103230.59;;;4.93;100.00
57948;BME280;43754;56.992;24.292;2023-05-20T02:28:00;103236.63;;;4.96;100.00
57948;BME280;43754;56.992;24.292;2023-05-20T02:30:36;103228.56;;;4.98;100.00
57948;BME280;43754;56.992;24.292;2023-05-20T02:33:08;103232.88;;;5.00;100.00
57948;BME280;43754;56.992;24.292;2023-05-20T02:35:40;103231.91;;;5.01;100.00
57948;BME280;43754;56.992;24.292;2023-05-20T02:38:14;103231.75;;;5.04;100.00
57948;BME280;43754;56.992;24.292;2023-05-20T02:40:47;103231.66;;;5.06;100.00
57948;BME280;43754;56.992;24.292;2023-05-20T02:43:20;103232.44;;;5.08;100.00
57948;BME280;43754;56.992;24.292;2023-05-20T02:45:52;103235.72;;;5.13;100.00
57948;BME280;43754;56.992;24.292;2023-05-20T02:48:24;103242.56;;;5.17;100.00
57948;BME280;43754;56.992;24.292;2023-05-20T02:50:58;103239.38;;;5.10;100.00
57948;BME280;43754;56.992;24.292;2023-05-20T02:53:30;103246.75;;;5.05;100.00
57948;BME280;43754;56.992;24.292;2023-05-20T02:56:04;103243.06;;;5.08;100.00
57948;BME280;43754;56.992;24.292;2023-05-20T02:58:36;103252.66;;;5.10;100.00
57948;BME280;43754;56.992;24.292;2023-05-20T03:01:09;103249.94;;;5.12;100.00
57948;BME280;43754;56.992;24.292;2023-05-20T03:03:41;103261.94;;;5.19;100.00
57948;BME280;43754;56.992;24.292;2023-05-20T03:06:13;103253.47;;;5.28;100.00
57948;BME280;43754;56.992;24.292;2023-05-20T03:08:45;103260.16;;;5.35;100.00
57948;BME280;43754;56.992;24.292;2023-05-20T03:11:20;103262.31;;;5.44;100.00
57948;BME280;43754;56.992;24.292;2023-05-20T03:13:52;103262.75;;;5.52;100.00
57948;BME280;43754;56.992;24.292;2023-05-20T03:16:25;103251.91;;;5.55;100.00
57948;BME280;43754;56.992;24.292;2023-05-20T03:18:59;103263.09;;;5.62;100.00
57948;BME280;43754;56.992;24.292;2023-05-20T03:21:31;103265.41;;;5.68;100.00
57948;BME280;43754;56.992;24.292;2023-05-20T03:24:04;103265.00;;;5.76;100.00
57948;BME280;43754;56.992;24.292;2023-05-20T03:26:38;103266.13;;;5.87;100.00
57948;BME280;43754;56.992;24.292;2023-05-20T03:29:15;103258.72;;;5.92;100.00
57948;BME280;43754;56.992;24.292;2023-05-20T03:31:48;103258.34;;;5.98;100.00
57948;BME280;43754;56.992;24.292;2023-05-20T03:34:20;103258.75;;;6.07;100.00
57948;BME280;43754;56.992;24.292;2023-05-20T03:36:53;103261.75;;;6.16;100.00
57948;BME280;43754;56.992;24.292;2023-05-20T03:39:25;103254.97;;;6.84;100.00
57948;BME280;43754;56.992;24.292;2023-05-20T03:41:59;103257.09;;;7.49;100.00
57948;BME280;43754;56.992;24.292;2023-05-20T03:44:32;103263.66;;;7.57;100.00
57948;BME280;43754;56.992;24.292;2023-05-20T03:47:04;103258.38;;;7.56;100.00
57948;BME280;43754;56.992;24.292;2023-05-20T03:49:37;103265.00;;;7.50;100.00
57948;BME280;43754;56.992;24.292;2023-05-20T03:52:10;103260.31;;;7.54;100.00
57948;BME280;43754;56.992;24.292;2023-05-20T03:54:42;103261.84;;;7.58;100.00
57948;BME280;43754;56.992;24.292;2023-05-20T03:57:15;103257.84;;;7.77;100.00
57948;BME280;43754;56.992;24.292;2023-05-20T03:59:47;103252.84;;;9.02;100.00
57948;BME280;43754;56.992;24.292;2023-05-20T04:02:20;103255.81;;;10.20;100.00
57948;BME280;43754;56.992;24.292;2023-05-20T04:04:52;103259.03;;;11.04;94.35
57948;BME280;43754;56.992;24.292;2023-05-20T04:07:24;103246.41;;;11.60;90.98
57948;BME280;43754;56.992;24.292;2023-05-20T04:09:56;103257.75;;;12.07;88.23
57948;BME280;43754;56.992;24.292;2023-05-20T04:12:31;103260.53;;;12.48;85.85
57948;BME280;43754;56.992;24.292;2023-05-20T04:15:04;103254.91;;;12.81;84.61
57948;BME280;43754;56.992;24.292;2023-05-20T04:17:45;103258.13;;;13.36;80.68
57948;BME280;43754;56.992;24.292;2023-05-20T04:20:19;103259.94;;;13.75;78.35
57948;BME280;43754;56.992;24.292;2023-05-20T04:22:52;103264.22;;;14.07;75.34
57948;BME280;43754;56.992;24.292;2023-05-20T04:25:25;103258.16;;;14.43;76.14
57948;BME280;43754;56.992;24.292;2023-05-20T04:28:00;103261.06;;;14.79;69.83
57948;BME280;43754;56.992;24.292;2023-05-20T04:30:33;103258.16;;;14.99;66.34
57948;BME280;43754;56.992;24.292;2023-05-20T04:33:06;103267.09;;;15.37;68.09
57948;BME280;43754;56.992;24.292;2023-05-20T04:35:38;103264.31;;;15.56;70.43
57948;BME280;43754;56.992;24.292;2023-05-20T04:38:13;103270.38;;;15.68;70.47
57948;BME280;43754;56.992;24.292;2023-05-20T04:40:47;103268.25;;;15.89;65.05
57948;BME280;43754;56.992;24.292;2023-05-20T04:43:20;103272.81;;;16.06;58.34
57948;BME280;43754;56.992;24.292;2023-05-20T04:45:52;103276.41;;;16.50;62.43
57948;BME280;43754;56.992;24.292;2023-05-20T04:48:25;103268.06;;;16.87;57.50
57948;BME280;43754;56.992;24.292;2023-05-20T04:50:57;103263.66;;;16.86;57.25
57948;BME280;43754;56.992;24.292;2023-05-20T04:53:29;103266.84;;;17.07;57.43
57948;BME280;43754;56.992;24.292;2023-05-20T04:56:01;103266.94;;;17.31;54.06
57948;BME280;43754;56.992;24.292;2023-05-20T04:58:36;103264.28;;;17.39;52.03
57948;BME280;43754;56.992;24.292;2023-05-20T05:01:08;103267.44;;;17.61;56.93
57948;BME280;43754;56.992;24.292;2023-05-20T05:03:40;103267.66;;;17.83;53.45
57948;BME280;43754;56.992;24.292;2023-05-20T05:06:13;103270.06;;;18.03;52.72
57948;BME280;43754;56.992;24.292;2023-05-20T05:08:45;103271.94;;;18.18;51.47
57948;BME280;43754;56.992;24.292;2023-05-20T05:11:17;103277.03;;;18.46;51.83
57948;BME280;43754;56.992;24.292;2023-05-20T05:13:51;103272.81;;;18.59;50.73
57948;BME280;43754;56.992;24.292;2023-05-20T05:16:26;103263.78;;;18.75;49.14
57948;BME280;43754;56.992;24.292;2023-05-20T05:18:59;103267.00;;;18.95;49.39
57948;BME280;43754;56.992;24.292;2023-05-20T05:21:34;103266.44;;;19.07;48.84
57948;BME280;43754;56.992;24.292;2023-05-20T05:24:07;103271.84;;;19.23;48.74
57948;BME280;43754;56.992;24.292;2023-05-20T05:26:39;103268.75;;;19.26;49.22
57948;BME280;43754;56.992;24.292;2023-05-20T05:29:14;103260.41;;;19.36;46.98
57948;BME280;43754;56.992;24.292;2023-05-20T05:31:46;103267.63;;;19.60;46.80
57948;BME280;43754;56.992;24.292;2023-05-20T05:34:18;103261.81;;;19.63;48.57
57948;BME280;43754;56.992;24.292;2023-05-20T05:36:50;103264.53;;;19.94;46.65
57948;BME280;43754;56.992;24.292;2023-05-20T05:39:23;103263.31;;;20.19;45.12
57948;BME280;43754;56.992;24.292;2023-05-20T05:41:55;103265.19;;;20.18;46.23
57948;BME280;43754;56.992;24.292;2023-05-20T05:44:29;103270.34;;;20.36;45.99
57948;BME280;43754;56.992;24.292;2023-05-20T05:47:01;103272.81;;;20.46;45.17
57948;BME280;43754;56.992;24.292;2023-05-20T05:49:34;103270.84;;;20.54;43.79
57948;BME280;43754;56.992;24.292;2023-05-20T05:52:06;103267.28;;;20.54;44.37
57948;BME280;43754;56.992;24.292;2023-05-20T05:54:39;103255.56;;;20.68;44.06
57948;BME280;43754;56.992;24.292;2023-05-20T05:57:11;103255.97;;;20.80;45.05
57948;BME280;43754;56.992;24.292;2023-05-20T05:59:45;103268.84;;;21.00;42.33
57948;BME280;43754;56.992;24.292;2023-05-20T06:02:18;103255.31;;;20.78;41.58
57948;BME280;43754;56.992;24.292;2023-05-20T06:04:50;103267.06;;;20.18;42.38
57948;BME280;43754;56.992;24.292;2023-05-20T06:07:23;103268.94;;;20.17;43.07
57948;BME280;43754;56.992;24.292;2023-05-20T06:09:56;103263.13;;;20.43;44.29
57948;BME280;43754;56.992;24.292;2023-05-20T06:12:28;103269.19;;;20.68;43.27
57948;BME280;43754;56.992;24.292;2023-05-20T06:15:01;103259.34;;;20.82;42.27
57948;BME280;43754;56.992;24.292;2023-05-20T06:17:34;103266.41;;;20.91;42.80
57948;BME280;43754;56.992;24.292;2023-05-20T06:20:07;103257.47;;;20.97;42.76
57948;BME280;43754;56.992;24.292;2023-05-20T06:22:39;103277.47;;;21.12;41.27
57948;BME280;43754;56.992;24.292;2023-05-20T06:25:11;103258.31;;;20.97;41.77
57948;BME280;43754;56.992;24.292;2023-05-20T06:27:45;103266.88;;;21.09;42.09
57948;BME280;43754;56.992;24.292;2023-05-20T06:30:22;103275.38;;;21.29;44.09
57948;BME280;43754;56.992;24.292;2023-05-20T06:32:54;103276.78;;;21.39;42.23
57948;BME280;43754;56.992;24.292;2023-05-20T06:35:26;103272.69;;;21.65;42.24
57948;BME280;43754;56.992;24.292;2023-05-20T06:37:58;103264.16;;;21.53;39.54
57948;BME280;43754;56.992;24.292;2023-05-20T06:40:32;103262.72;;;21.57;40.73
57948;BME280;43754;56.992;24.292;2023-05-20T06:43:04;103258.47;;;21.69;39.50
57948;BME280;43754;56.992;24.292;2023-05-20T06:45:53;103253.75;;;21.63;37.80
57948;BME280;43754;56.992;24.292;2023-05-20T06:48:31;103250.19;;;21.63;39.04
57948;BME280;43754;56.992;24.292;2023-05-20T06:51:06;103251.69;;;21.65;41.07
57948;BME280;43754;56.992;24.292;2023-05-20T06:53:39;103255.34;;;21.72;39.77
57948;BME280;43754;56.992;24.292;2023-05-20T06:56:11;103253.41;;;21.66;37.77
57948;BME280;43754;56.992;24.292;2023-05-20T06:58:43;103235.22;;;21.58;39.95
57948;BME280;43754;56.992;24.292;2023-05-20T07:01:17;103249.84;;;21.87;37.98
57948;BME280;43754;56.992;24.292;2023-05-20T07:03:50;103243.53;;;21.86;37.88
57948;BME280;43754;56.992;24.292;2023-05-20T07:06:23;103242.53;;;21.73;37.86
57948;BME280;43754;56.992;24.292;2023-05-20T07:08:55;103250.66;;;21.66;37.94
57948;BME280;43754;56.992;24.292;2023-05-20T07:11:27;103242.78;;;21.56;38.20
57948;BME280;43754;56.992;24.292;2023-05-20T07:13:59;103239.81;;;21.37;37.33
57948;BME280;43754;56.992;24.292;2023-05-20T07:16:35;103244.78;;;20.89;38.46
57948;BME280;43754;56.992;24.292;2023-05-20T07:19:07;103237.09;;;20.78;38.87
57948;BME280;43754;56.992;24.292;2023-05-20T07:21:40;103235.19;;;20.64;38.66
57948;BME280;43754;56.992;24.292;2023-05-20T07:24:30;103233.84;;;20.60;38.16
57948;BME280;43754;56.992;24.292;2023-05-20T07:27:03;103236.63;;;20.75;38.21
57948;BME280;43754;56.992;24.292;2023-05-20T07:29:35;103241.72;;;20.55;38.46
57948;BME280;43754;56.992;24.292;2023-05-20T07:32:09;103240.00;;;20.39;38.98
57948;BME280;43754;56.992;24.292;2023-05-20T07:34:42;103235.00;;;20.65;38.90
57948;BME280;43754;56.992;24.292;2023-05-20T07:37:14;103224.00;;;20.74;39.13
57948;BME280;43754;56.992;24.292;2023-05-20T07:39:46;103223.63;;;21.06;38.26
57948;BME280;43754;56.992;24.292;2023-05-20T07:42:19;103229.63;;;21.45;37.22
57948;BME280;43754;56.992;24.292;2023-05-20T07:44:53;103228.91;;;21.22;37.22
57948;BME280;43754;56.992;24.292;2023-05-20T07:47:27;103226.94;;;20.87;37.72
57948;BME280;43754;56.992;24.292;2023-05-20T07:50:00;103223.56;;;21.29;38.28
57948;BME280;43754;56.992;24.292;2023-05-20T07:52:33;103224.31;;;21.58;38.52
57948;BME280;43754;56.992;24.292;2023-05-20T07:55:19;103221.09;;;21.70;36.43
57948;BME280;43754;56.992;24.292;2023-05-20T07:57:51;103218.19;;;21.92;37.14
57948;BME280;43754;56.992;24.292;2023-05-20T08:00:24;103210.84;;;22.14;37.66
57948;BME280;43754;56.992;24.292;2023-05-20T08:02:58;103217.16;;;22.15;37.62
57948;BME280;43754;56.992;24.292;2023-05-20T08:05:40;103221.06;;;22.06;37.60
57948;BME280;43754;56.992;24.292;2023-05-20T08:08:12;103216.00;;;22.02;37.07
57948;BME280;43754;56.992;24.292;2023-05-20T08:10:56;103201.75;;;22.07;36.73
57948;BME280;43754;56.992;24.292;2023-05-20T08:13:31;103213.91;;;22.05;35.84
57948;BME280;43754;56.992;24.292;2023-05-20T08:16:05;103214.38;;;21.72;37.04
57948;BME280;43754;56.992;24.292;2023-05-20T08:18:39;103209.06;;;21.85;36.64
57948;BME280;43754;56.992;24.292;2023-05-20T08:21:11;103204.38;;;22.22;36.51
57948;BME280;43754;56.992;24.292;2023-05-20T08:23:44;103210.22;;;22.40;36.17
57948;BME280;43754;56.992;24.292;2023-05-20T08:26:16;103206.44;;;22.41;35.60
57948;BME280;43754;56.992;24.292;2023-05-20T08:28:48;103201.13;;;22.33;35.37
57948;BME280;43754;56.992;24.292;2023-05-20T08:31:21;103205.94;;;22.59;36.71
57948;BME280;43754;56.992;24.292;2023-05-20T08:33:55;103203.28;;;23.00;34.92
57948;BME280;43754;56.992;24.292;2023-05-20T08:36:27;103200.47;;;22.59;34.30
57948;BME280;43754;56.992;24.292;2023-05-20T08:38:59;103211.38;;;22.52;35.49
57948;BME280;43754;56.992;24.292;2023-05-20T08:41:32;103209.75;;;22.64;35.56
57948;BME280;43754;56.992;24.292;2023-05-20T08:44:05;103198.56;;;22.59;34.13
57948;BME280;43754;56.992;24.292;2023-05-20T08:46:40;103204.09;;;22.66;35.99
57948;BME280;43754;56.992;24.292;2023-05-20T08:49:15;103201.84;;;22.69;33.49
57948;BME280;43754;56.992;24.292;2023-05-20T08:51:47;103201.44;;;22.44;34.21
57948;BME280;43754;56.992;24.292;2023-05-20T08:54:20;103193.66;;;22.76;34.51
57948;BME280;43754;56.992;24.292;2023-05-20T08:56:54;103193.78;;;22.61;34.68
57948;BME280;43754;56.992;24.292;2023-05-20T08:59:26;103200.69;;;22.57;34.13
57948;BME280;43754;56.992;24.292;2023-05-20T09:01:58;103199.66;;;22.58;36.11
57948;BME280;43754;56.992;24.292;2023-05-20T09:04:32;103186.88;;;23.00;35.05
57948;BME280;43754;56.992;24.292;2023-05-20T09:07:04;103191.38;;;22.79;33.53
57948;BME280;43754;56.992;24.292;2023-05-20T09:09:37;103189.97;;;22.90;33.74
57948;BME280;43754;56.992;24.292;2023-05-20T09:12:09;103192.44;;;23.19;33.74
57948;BME280;43754;56.992;24.292;2023-05-20T09:14:42;103185.88;;;23.14;32.97
57948;BME280;43754;56.992;24.292;2023-05-20T09:17:14;103180.75;;;22.98;34.03
57948;BME280;43754;56.992;24.292;2023-05-20T09:19:48;103186.28;;;23.11;33.93
57948;BME280;43754;56.992;24.292;2023-05-20T09:22:24;103183.84;;;23.29;32.75
57948;BME280;43754;56.992;24.292;2023-05-20T09:24:56;103192.06;;;23.29;33.33
57948;BME280;43754;56.992;24.292;2023-05-20T09:27:28;103180.06;;;22.89;33.33
57948;BME280;43754;56.992;24.292;2023-05-20T09:30:00;103181.19;;;22.67;33.91
57948;BME280;43754;56.992;24.292;2023-05-20T09:32:32;103173.09;;;22.52;33.39
57948;BME280;43754;56.992;24.292;2023-05-20T09:35:07;103172.44;;;22.78;34.66
57948;BME280;43754;56.992;24.292;2023-05-20T09:37:41;103165.44;;;23.10;32.24
57948;BME280;43754;56.992;24.292;2023-05-20T09:40:15;103172.06;;;23.35;32.75
57948;BME280;43754;56.992;24.292;2023-05-20T09:42:51;103172.91;;;23.29;34.35
57948;BME280;43754;56.992;24.292;2023-05-20T09:45:23;103173.75;;;23.36;33.13
57948;BME280;43754;56.992;24.292;2023-05-20T09:47:56;103162.78;;;23.29;32.18
57948;BME280;43754;56.992;24.292;2023-05-20T09:50:30;103171.44;;;23.33;34.20
57948;BME280;43754;56.992;24.292;2023-05-20T09:53:03;103161.84;;;23.76;33.16
57948;BME280;43754;56.992;24.292;2023-05-20T09:55:36;103163.75;;;23.69;30.49
57948;BME280;43754;56.992;24.292;2023-05-20T09:58:10;103159.75;;;23.72;30.85
57948;BME280;43754;56.992;24.292;2023-05-20T10:00:46;103157.22;;;23.64;30.77
57948;BME280;43754;56.992;24.292;2023-05-20T10:03:21;103163.78;;;23.22;32.38
57948;BME280;43754;56.992;24.292;2023-05-20T10:06:09;103156.47;;;23.35;31.86
57948;BME280;43754;56.992;24.292;2023-05-20T10:09:10;103155.53;;;23.76;32.40
57948;BME280;43754;56.992;24.292;2023-05-20T10:11:51;103154.75;;;24.15;32.09
57948;BME280;43754;56.992;24.292;2023-05-20T10:14:40;103144.41;;;24.23;32.54
57948;BME280;43754;56.992;24.292;2023-05-20T10:17:19;103153.03;;;23.88;31.61
57948;BME280;43754;56.992;24.292;2023-05-20T10:19:56;103158.28;;;23.69;32.82
57948;BME280;43754;56.992;24.292;2023-05-20T10:22:30;103152.41;;;23.99;32.22
57948;BME280;43754;56.992;24.292;2023-05-20T10:25:04;103151.34;;;24.13;32.16
57948;BME280;43754;56.992;24.292;2023-05-20T10:27:45;103137.22;;;24.36;32.02
57948;BME280;43754;56.992;24.292;2023-05-20T10:30:18;103145.00;;;24.39;31.82
57948;BME280;43754;56.992;24.292;2023-05-20T10:32:56;103137.00;;;24.50;31.75
57948;BME280;43754;56.992;24.292;2023-05-20T10:35:29;103137.81;;;24.57;32.18
57948;BME280;43754;56.992;24.292;2023-05-20T10:38:10;103132.78;;;24.54;30.83
57948;BME280;43754;56.992;24.292;2023-05-20T10:40:43;103129.59;;;24.57;31.47
57948;BME280;43754;56.992;24.292;2023-05-20T10:43:16;103118.81;;;24.56;31.53
57948;BME280;43754;56.992;24.292;2023-05-20T10:45:50;103120.25;;;24.71;32.65
57948;BME280;43754;56.992;24.292;2023-05-20T10:48:24;103114.56;;;24.73;29.52
57948;BME280;43754;56.992;24.292;2023-05-20T10:50:58;103123.06;;;24.58;28.64
57948;BME280;43754;56.992;24.292;2023-05-20T10:53:39;103115.84;;;24.64;28.70
57948;BME280;43754;56.992;24.292;2023-05-20T10:56:15;103113.38;;;24.43;29.38
57948;BME280;43754;56.992;24.292;2023-05-20T10:58:48;103110.88;;;24.08;29.45
57948;BME280;43754;56.992;24.292;2023-05-20T11:01:23;103107.53;;;24.19;29.94
57948;BME280;43754;56.992;24.292;2023-05-20T11:03:57;103104.97;;;24.38;29.42
57948;BME280;43754;56.992;24.292;2023-05-20T11:06:31;103105.97;;;24.56;29.46
57948;BME280;43754;56.992;24.292;2023-05-20T11:09:05;103108.91;;;24.61;29.67
57948;BME280;43754;56.992;24.292;2023-05-20T11:11:37;103094.38;;;24.54;29.71
57948;BME280;43754;56.992;24.292;2023-05-20T11:14:10;103095.78;;;24.70;29.21
57948;BME280;43754;56.992;24.292;2023-05-20T11:16:45;103095.09;;;24.94;30.14
57948;BME280;43754;56.992;24.292;2023-05-20T11:19:17;103090.31;;;25.14;31.24
57948;BME280;43754;56.992;24.292;2023-05-20T11:21:49;103082.84;;;25.28;30.79
57948;BME280;43754;56.992;24.292;2023-05-20T11:24:24;103084.53;;;25.29;30.14
57948;BME280;43754;56.992;24.292;2023-05-20T11:27:00;103078.88;;;25.24;30.50
57948;BME280;43754;56.992;24.292;2023-05-20T11:29:32;103076.56;;;25.21;29.60
57948;BME280;43754;56.992;24.292;2023-05-20T11:32:06;103068.75;;;25.18;29.37
57948;BME280;43754;56.992;24.292;2023-05-20T11:34:39;103061.69;;;25.04;29.44
57948;BME280;43754;56.992;24.292;2023-05-20T11:37:11;103060.69;;;24.92;29.69
57948;BME280;43754;56.992;24.292;2023-05-20T11:39:45;103050.16;;;24.38;29.48
57948;BME280;43754;56.992;24.292;2023-05-20T11:42:17;103061.53;;;24.21;30.26
57948;BME280;43754;56.992;24.292;2023-05-20T11:44:49;103051.19;;;24.30;30.10
57948;BME280;43754;56.992;24.292;2023-05-20T11:47:24;103049.31;;;24.24;30.09
57948;BME280;43754;56.992;24.292;2023-05-20T11:49:58;103055.41;;;24.26;31.36
57948;BME280;43754;56.992;24.292;2023-05-20T11:52:32;103038.75;;;24.34;34.44
57948;BME280;43754;56.992;24.292;2023-05-20T11:55:09;103051.00;;;24.05;35.60
57948;BME280;43754;56.992;24.292;2023-05-20T11:57:41;103048.47;;;24.23;36.38
57948;BME280;43754;56.992;24.292;2023-05-20T12:00:14;103047.78;;;24.48;35.76
57948;BME280;43754;56.992;24.292;2023-05-20T12:02:46;103048.50;;;24.17;34.46
57948;BME280;43754;56.992;24.292;2023-05-20T12:05:18;103044.09;;;23.83;34.49
57948;BME280;43754;56.992;24.292;2023-05-20T12:07:50;103046.03;;;23.63;35.66
57948;BME280;43754;56.992;24.292;2023-05-20T12:10:24;103044.25;;;23.42;36.38
57948;BME280;43754;56.992;24.292;2023-05-20T12:12:56;103042.22;;;23.70;35.38
57948;BME280;43754;56.992;24.292;2023-05-20T12:15:28;103039.25;;;23.78;35.89
57948;BME280;43754;56.992;24.292;2023-05-20T12:18:01;103042.81;;;23.92;35.46
57948;BME280;43754;56.992;24.292;2023-05-20T12:20:33;103042.81;;;23.99;34.84
57948;BME280;43754;56.992;24.292;2023-05-20T12:23:07;103041.75;;;23.93;35.77
57948;BME280;43754;56.992;24.292;2023-05-20T12:25:40;103038.00;;;23.68;36.58
57948;BME280;43754;56.992;24.292;2023-05-20T12:28:12;103035.66;;;23.84;36.01
57948;BME280;43754;56.992;24.292;2023-05-20T12:30:45;103033.78;;;23.92;36.03
57948;BME280;43754;56.992;24.292;2023-05-20T12:33:17;103046.19;;;23.68;34.96
57948;BME280;43754;56.992;24.292;2023-05-20T12:35:51;103045.59;;;23.53;35.39
57948;BME280;43754;56.992;24.292;2023-05-20T12:38:23;103047.00;;;23.42;35.01
57948;BME280;43754;56.992;24.292;2023-05-20T12:40:57;103047.81;;;23.10;35.24
57948;BME280;43754;56.992;24.292;2023-05-20T12:43:29;103038.66;;;22.70;35.85
57948;BME280;43754;56.992;24.292;2023-05-20T12:46:01;103043.50;;;22.74;35.88
57948;BME280;43754;56.992;24.292;2023-05-20T12:48:33;103040.88;;;22.19;36.18
57948;BME280;43754;56.992;24.292;2023-05-20T12:51:05;103034.66;;;22.31;37.14
57948;BME280;43754;56.992;24.292;2023-05-20T12:53:37;103042.13;;;22.57;36.81
57948;BME280;43754;56.992;24.292;2023-05-20T12:56:10;103039.53;;;22.83;36.68
57948;BME280;43754;56.992;24.292;2023-05-20T12:58:43;103032.50;;;22.68;35.85
57948;BME280;43754;56.992;24.292;2023-05-20T13:01:15;103020.69;;;22.54;35.70
57948;BME280;43754;56.992;24.292;2023-05-20T13:03:47;103019.28;;;22.30;36.39
57948;BME280;43754;56.992;24.292;2023-05-20T13:06:23;103006.34;;;22.45;36.16
57948;BME280;43754;56.992;24.292;2023-05-20T13:08:56;103015.94;;;22.35;36.57
57948;BME280;43754;56.992;24.292;2023-05-20T13:11:30;103011.41;;;22.48;36.61
57948;BME280;43754;56.992;24.292;2023-05-20T13:14:02;102995.19;;;22.40;36.45